sensor_id;sensor_type;location;lat;lon;timestamp;P1;durP1;ratioP1;P2;durP2;ratioP2
43419;SDS011;29017;51.514;-0.178;2022-09-12T00:01:12;9.50;;;4.30;;
43419;SDS011;29017;51.514;-0.178;2022-09-12T00:03:41;9.05;;;4.03;;
43419;SDS011;29017;51.514;-0.178;2022-09-12T00:08:44;8.07;;;4.18;;
43419;SDS011;29017;51.514;-0.178;2022-09-12T00:11:12;9.25;;;3.85;;
43419;SDS011;29017;51.514;-0.178;2022-09-12T00:13:40;6.80;;;4.32;;
43419;SDS011;29017;51.514;-0.178;2022-09-12T00:18:47;8.98;;;4.63;;
43419;SDS011;29017;51.514;-0.178;2022-09-12T00:21:15;9.52;;;4.43;;
43419;SDS011;29017;51.514;-0.178;2022-09-12T00:23:44;8.07;;;4.03;;
43419;SDS011;29017;51.514;-0.178;2022-09-12T00:26:12;9.63;;;4.47;;
43419;SDS011;29017;51.514;-0.178;2022-09-12T00:31:16;7.68;;;3.78;;
43419;SDS011;29017;51.514;-0.178;2022-09-12T00:33:46;6.55;;;4.15;;
43419;SDS011;29017;51.514;-0.178;2022-09-12T00:36:24;7.18;;;4.00;;
43419;SDS011;29017;51.514;-0.178;2022-09-12T00:38:53;8.10;;;4.60;;
43419;SDS011;29017;51.514;-0.178;2022-09-12T00:43:54;12.07;;;4.90;;
43419;SDS011;29017;51.514;-0.178;2022-09-12T00:46:27;7.93;;;4.18;;
43419;SDS011;29017;51.514;-0.178;2022-09-12T00:51:31;10.10;;;4.68;;
43419;SDS011;29017;51.514;-0.178;2022-09-12T00:54:03;8.55;;;4.45;;
43419;SDS011;29017;51.514;-0.178;2022-09-12T00:59:06;12.13;;;6.75;;
43419;SDS011;29017;51.514;-0.178;2022-09-12T01:01:39;7.35;;;4.70;;
43419;SDS011;29017;51.514;-0.178;2022-09-12T01:04:15;10.02;;;4.78;;
43419;SDS011;29017;51.514;-0.178;2022-09-12T01:06:45;8.50;;;4.97;;
43419;SDS011;29017;51.514;-0.178;2022-09-12T01:09:15;10.98;;;4.90;;
43419;SDS011;29017;51.514;-0.178;2022-09-12T01:11:44;7.93;;;4.78;;
43419;SDS011;29017;51.514;-0.178;2022-09-12T01:14:14;9.13;;;4.97;;
43419;SDS011;29017;51.514;-0.178;2022-09-12T01:16:43;9.68;;;5.00;;
43419;SDS011;29017;51.514;-0.178;2022-09-12T01:19:18;7.40;;;4.70;;
43419;SDS011;29017;51.514;-0.178;2022-09-12T01:24:48;8.32;;;4.32;;
43419;SDS011;29017;51.514;-0.178;2022-09-12T01:38:30;8.57;;;4.70;;
43419;SDS011;29017;51.514;-0.178;2022-09-12T01:41:05;9.98;;;5.07;;
43419;SDS011;29017;51.514;-0.178;2022-09-12T01:46:28;11.30;;;5.30;;
43419;SDS011;29017;51.514;-0.178;2022-09-12T01:49:05;13.70;;;6.70;;
43419;SDS011;29017;51.514;-0.178;2022-09-12T01:51:38;12.13;;;6.28;;
43419;SDS011;29017;51.514;-0.178;2022-09-12T01:54:12;9.85;;;5.28;;
43419;SDS011;29017;51.514;-0.178;2022-09-12T01:56:47;7.78;;;4.57;;
43419;SDS011;29017;51.514;-0.178;2022-09-12T02:02:00;7.53;;;4.55;;
43419;SDS011;29017;51.514;-0.178;2022-09-12T02:04:38;12.00;;;5.03;;
43419;SDS011;29017;51.514;-0.178;2022-09-12T02:07:11;10.65;;;5.50;;
43419;SDS011;29017;51.514;-0.178;2022-09-12T02:09:44;8.88;;;5.07;;
43419;SDS011;29017;51.514;-0.178;2022-09-12T02:12:19;8.90;;;5.50;;
43419;SDS011;29017;51.514;-0.178;2022-09-12T02:14:57;10.43;;;5.47;;
43419;SDS011;29017;51.514;-0.178;2022-09-12T02:17:29;9.80;;;5.15;;
43419;SDS011;29017;51.514;-0.178;2022-09-12T02:20:02;9.65;;;4.90;;
43419;SDS011;29017;51.514;-0.178;2022-09-12T02:22:46;11.73;;;5.68;;
43419;SDS011;29017;51.514;-0.178;2022-09-12T02:25:14;7.90;;;4.88;;
43419;SDS011;29017;51.514;-0.178;2022-09-12T02:27:44;9.52;;;5.15;;
43419;SDS011;29017;51.514;-0.178;2022-09-12T02:30:16;9.85;;;5.15;;
43419;SDS011;29017;51.514;-0.178;2022-09-12T02:35:18;10.13;;;5.30;;
43419;SDS011;29017;51.514;-0.178;2022-09-12T02:37:55;9.25;;;4.93;;
43419;SDS011;29017;51.514;-0.178;2022-09-12T02:40:24;9.30;;;5.65;;
43419;SDS011;29017;51.514;-0.178;2022-09-12T02:42:52;11.85;;;7.22;;
43419;SDS011;29017;51.514;-0.178;2022-09-12T02:45:19;11.15;;;5.68;;
43419;SDS011;29017;51.514;-0.178;2022-09-12T02:47:49;14.48;;;7.03;;
43419;SDS011;29017;51.514;-0.178;2022-09-12T02:50:23;9.23;;;5.80;;
43419;SDS011;29017;51.514;-0.178;2022-09-12T02:52:50;9.15;;;5.95;;
43419;SDS011;29017;51.514;-0.178;2022-09-12T02:55:21;13.18;;;5.45;;
43419;SDS011;29017;51.514;-0.178;2022-09-12T02:57:50;10.88;;;5.88;;
43419;SDS011;29017;51.514;-0.178;2022-09-12T03:00:17;8.05;;;4.85;;
43419;SDS011;29017;51.514;-0.178;2022-09-12T03:18:22;13.38;;;6.53;;
43419;SDS011;29017;51.514;-0.178;2022-09-12T03:26:25;8.02;;;5.35;;
43419;SDS011;29017;51.514;-0.178;2022-09-12T03:28:58;8.30;;;5.38;;
43419;SDS011;29017;51.514;-0.178;2022-09-12T03:33:53;15.10;;;10.60;;
43419;SDS011;29017;51.514;-0.178;2022-09-12T03:36:22;6.82;;;4.15;;
43419;SDS011;29017;51.514;-0.178;2022-09-12T03:38:50;10.00;;;4.93;;
43419;SDS011;29017;51.514;-0.178;2022-09-12T03:41:18;8.48;;;4.88;;
43419;SDS011;29017;51.514;-0.178;2022-09-12T03:43:45;7.40;;;4.65;;
43419;SDS011;29017;51.514;-0.178;2022-09-12T03:46:13;9.93;;;4.55;;
43419;SDS011;29017;51.514;-0.178;2022-09-12T03:48:41;10.55;;;4.88;;
43419;SDS011;29017;51.514;-0.178;2022-09-12T03:51:09;6.88;;;4.82;;
43419;SDS011;29017;51.514;-0.178;2022-09-12T03:53:36;10.07;;;5.70;;
43419;SDS011;29017;51.514;-0.178;2022-09-12T03:56:05;10.02;;;6.05;;
43419;SDS011;29017;51.514;-0.178;2022-09-12T03:58:33;6.32;;;3.88;;
43419;SDS011;29017;51.514;-0.178;2022-09-12T04:03:40;6.53;;;4.03;;
43419;SDS011;29017;51.514;-0.178;2022-09-12T04:06:09;9.27;;;4.05;;
43419;SDS011;29017;51.514;-0.178;2022-09-12T04:08:38;7.10;;;4.00;;
43419;SDS011;29017;51.514;-0.178;2022-09-12T04:11:09;8.65;;;3.85;;
43419;SDS011;29017;51.514;-0.178;2022-09-12T04:13:39;10.55;;;3.75;;
43419;SDS011;29017;51.514;-0.178;2022-09-12T04:16:08;8.30;;;3.45;;
43419;SDS011;29017;51.514;-0.178;2022-09-12T04:18:36;8.73;;;4.10;;
43419;SDS011;29017;51.514;-0.178;2022-09-12T04:21:05;7.53;;;4.35;;
43419;SDS011;29017;51.514;-0.178;2022-09-12T04:23:33;7.00;;;4.20;;
43419;SDS011;29017;51.514;-0.178;2022-09-12T04:26:01;7.40;;;3.75;;
43419;SDS011;29017;51.514;-0.178;2022-09-12T04:28:32;7.90;;;4.03;;
43419;SDS011;29017;51.514;-0.178;2022-09-12T04:31:02;8.93;;;4.60;;
43419;SDS011;29017;51.514;-0.178;2022-09-12T04:33:33;8.60;;;4.57;;
43419;SDS011;29017;51.514;-0.178;2022-09-12T04:36:02;6.97;;;3.78;;
43419;SDS011;29017;51.514;-0.178;2022-09-12T04:38:31;8.32;;;3.92;;
43419;SDS011;29017;51.514;-0.178;2022-09-12T04:40:59;5.40;;;3.25;;
43419;SDS011;29017;51.514;-0.178;2022-09-12T04:43:26;9.18;;;3.67;;
43419;SDS011;29017;51.514;-0.178;2022-09-12T04:45:53;11.23;;;6.50;;
43419;SDS011;29017;51.514;-0.178;2022-09-12T04:48:21;8.35;;;4.10;;
43419;SDS011;29017;51.514;-0.178;2022-09-12T04:50:48;7.70;;;3.55;;
43419;SDS011;29017;51.514;-0.178;2022-09-12T04:53:16;7.45;;;4.18;;
43419;SDS011;29017;51.514;-0.178;2022-09-12T04:55:43;7.28;;;4.20;;
43419;SDS011;29017;51.514;-0.178;2022-09-12T04:58:09;7.63;;;4.40;;
43419;SDS011;29017;51.514;-0.178;2022-09-12T05:00:36;10.77;;;4.68;;
43419;SDS011;29017;51.514;-0.178;2022-09-12T05:03:04;10.85;;;3.72;;
43419;SDS011;29017;51.514;-0.178;2022-09-12T05:05:31;9.27;;;4.13;;
43419;SDS011;29017;51.514;-0.178;2022-09-12T05:07:57;6.07;;;4.15;;
43419;SDS011;29017;51.514;-0.178;2022-09-12T05:10:24;8.40;;;3.58;;
43419;SDS011;29017;51.514;-0.178;2022-09-12T05:12:54;7.72;;;4.15;;
43419;SDS011;29017;51.514;-0.178;2022-09-12T05:15:21;7.15;;;4.25;;
43419;SDS011;29017;51.514;-0.178;2022-09-12T05:17:48;6.88;;;4.47;;
43419;SDS011;29017;51.514;-0.178;2022-09-12T05:20:15;11.80;;;6.63;;
43419;SDS011;29017;51.514;-0.178;2022-09-12T05:22:43;7.85;;;4.35;;
43419;SDS011;29017;51.514;-0.178;2022-09-12T05:25:10;10.18;;;4.88;;
43419;SDS011;29017;51.514;-0.178;2022-09-12T05:27:38;7.45;;;3.67;;
43419;SDS011;29017;51.514;-0.178;2022-09-12T05:30:05;9.23;;;4.22;;
43419;SDS011;29017;51.514;-0.178;2022-09-12T05:32:33;7.35;;;4.47;;
43419;SDS011;29017;51.514;-0.178;2022-09-12T05:35:01;7.70;;;4.20;;
43419;SDS011;29017;51.514;-0.178;2022-09-12T05:37:28;8.23;;;4.30;;
43419;SDS011;29017;51.514;-0.178;2022-09-12T05:39:55;8.63;;;4.57;;
43419;SDS011;29017;51.514;-0.178;2022-09-12T05:42:23;9.23;;;4.28;;
43419;SDS011;29017;51.514;-0.178;2022-09-12T05:44:50;8.05;;;4.22;;
43419;SDS011;29017;51.514;-0.178;2022-09-12T05:47:17;6.45;;;3.60;;
43419;SDS011;29017;51.514;-0.178;2022-09-12T05:49:44;6.47;;;3.60;;
43419;SDS011;29017;51.514;-0.178;2022-09-12T05:52:13;7.00;;;3.63;;
43419;SDS011;29017;51.514;-0.178;2022-09-12T05:54:40;8.48;;;4.13;;
43419;SDS011;29017;51.514;-0.178;2022-09-12T05:57:07;6.45;;;3.95;;
43419;SDS011;29017;51.514;-0.178;2022-09-12T05:59:34;7.07;;;3.92;;
43419;SDS011;29017;51.514;-0.178;2022-09-12T06:02:02;6.85;;;3.42;;
43419;SDS011;29017;51.514;-0.178;2022-09-12T06:04:30;7.28;;;3.72;;
43419;SDS011;29017;51.514;-0.178;2022-09-12T06:06:57;8.50;;;4.07;;
43419;SDS011;29017;51.514;-0.178;2022-09-12T06:09:24;7.07;;;4.00;;
43419;SDS011;29017;51.514;-0.178;2022-09-12T06:11:51;9.50;;;4.03;;
43419;SDS011;29017;51.514;-0.178;2022-09-12T06:14:18;6.47;;;3.60;;
43419;SDS011;29017;51.514;-0.178;2022-09-12T06:16:46;7.03;;;3.75;;
43419;SDS011;29017;51.514;-0.178;2022-09-12T06:19:15;9.82;;;3.22;;
43419;SDS011;29017;51.514;-0.178;2022-09-12T06:21:44;5.95;;;3.83;;
43419;SDS011;29017;51.514;-0.178;2022-09-12T06:24:13;5.43;;;3.22;;
43419;SDS011;29017;51.514;-0.178;2022-09-12T06:26:40;8.73;;;3.42;;
43419;SDS011;29017;51.514;-0.178;2022-09-12T06:29:08;6.25;;;3.47;;
43419;SDS011;29017;51.514;-0.178;2022-09-12T06:31:37;8.43;;;4.63;;
43419;SDS011;29017;51.514;-0.178;2022-09-12T06:34:08;10.85;;;3.90;;
43419;SDS011;29017;51.514;-0.178;2022-09-12T06:36:39;6.32;;;3.33;;
43419;SDS011;29017;51.514;-0.178;2022-09-12T06:39:09;9.32;;;3.40;;
43419;SDS011;29017;51.514;-0.178;2022-09-12T06:41:39;8.90;;;3.42;;
43419;SDS011;29017;51.514;-0.178;2022-09-12T06:44:11;8.18;;;2.63;;
43419;SDS011;29017;51.514;-0.178;2022-09-12T06:46:41;10.88;;;4.05;;
43419;SDS011;29017;51.514;-0.178;2022-09-12T06:49:09;7.78;;;3.47;;
43419;SDS011;29017;51.514;-0.178;2022-09-12T06:51:37;5.18;;;3.10;;
43419;SDS011;29017;51.514;-0.178;2022-09-12T06:54:04;12.35;;;7.03;;
43419;SDS011;29017;51.514;-0.178;2022-09-12T06:56:31;17.67;;;5.95;;
43419;SDS011;29017;51.514;-0.178;2022-09-12T06:58:58;9.05;;;4.13;;
43419;SDS011;29017;51.514;-0.178;2022-09-12T07:01:27;6.43;;;4.03;;
43419;SDS011;29017;51.514;-0.178;2022-09-12T07:03:57;8.82;;;3.22;;
43419;SDS011;29017;51.514;-0.178;2022-09-12T07:06:27;7.15;;;4.60;;
43419;SDS011;29017;51.514;-0.178;2022-09-12T07:08:58;4.43;;;2.90;;
43419;SDS011;29017;51.514;-0.178;2022-09-12T07:11:28;7.70;;;2.75;;
43419;SDS011;29017;51.514;-0.178;2022-09-12T07:13:58;6.47;;;2.70;;
43419;SDS011;29017;51.514;-0.178;2022-09-12T07:16:28;6.45;;;2.83;;
43419;SDS011;29017;51.514;-0.178;2022-09-12T07:18:56;6.20;;;3.03;;
43419;SDS011;29017;51.514;-0.178;2022-09-12T07:21:26;6.50;;;2.72;;
43419;SDS011;29017;51.514;-0.178;2022-09-12T07:23:54;6.30;;;2.85;;
43419;SDS011;29017;51.514;-0.178;2022-09-12T07:26:24;6.03;;;3.05;;
43419;SDS011;29017;51.514;-0.178;2022-09-12T07:28:54;6.95;;;3.45;;
43419;SDS011;29017;51.514;-0.178;2022-09-12T07:31:43;5.00;;;2.55;;
43419;SDS011;29017;51.514;-0.178;2022-09-12T07:34:10;8.02;;;2.80;;
43419;SDS011;29017;51.514;-0.178;2022-09-12T07:36:38;4.38;;;2.40;;
43419;SDS011;29017;51.514;-0.178;2022-09-12T07:39:05;7.20;;;2.38;;
43419;SDS011;29017;51.514;-0.178;2022-09-12T07:41:34;7.70;;;2.47;;
43419;SDS011;29017;51.514;-0.178;2022-09-12T07:44:12;7.50;;;4.20;;
43419;SDS011;29017;51.514;-0.178;2022-09-12T07:46:39;4.78;;;2.35;;
43419;SDS011;29017;51.514;-0.178;2022-09-12T07:49:06;5.93;;;1.98;;
43419;SDS011;29017;51.514;-0.178;2022-09-12T07:51:33;4.75;;;1.73;;
43419;SDS011;29017;51.514;-0.178;2022-09-12T07:54:00;5.07;;;2.10;;
43419;SDS011;29017;51.514;-0.178;2022-09-12T07:56:28;6.68;;;2.97;;
43419;SDS011;29017;51.514;-0.178;2022-09-12T07:58:59;6.07;;;2.57;;
43419;SDS011;29017;51.514;-0.178;2022-09-12T08:01:26;6.93;;;2.55;;
43419;SDS011;29017;51.514;-0.178;2022-09-12T08:03:54;4.65;;;2.67;;
43419;SDS011;29017;51.514;-0.178;2022-09-12T08:06:23;7.63;;;2.17;;
43419;SDS011;29017;51.514;-0.178;2022-09-12T08:08:51;4.78;;;3.20;;
43419;SDS011;29017;51.514;-0.178;2022-09-12T08:11:21;6.38;;;2.38;;
43419;SDS011;29017;51.514;-0.178;2022-09-12T08:13:49;6.90;;;2.25;;
43419;SDS011;29017;51.514;-0.178;2022-09-12T08:16:21;7.18;;;3.08;;
43419;SDS011;29017;51.514;-0.178;2022-09-12T08:18:55;6.20;;;3.35;;
43419;SDS011;29017;51.514;-0.178;2022-09-12T08:21:29;4.88;;;2.13;;
43419;SDS011;29017;51.514;-0.178;2022-09-12T08:24:13;8.60;;;3.80;;
43419;SDS011;29017;51.514;-0.178;2022-09-12T08:26:41;5.97;;;2.05;;
43419;SDS011;29017;51.514;-0.178;2022-09-12T08:29:09;4.95;;;2.50;;
43419;SDS011;29017;51.514;-0.178;2022-09-12T08:31:36;4.68;;;1.60;;
43419;SDS011;29017;51.514;-0.178;2022-09-12T08:34:04;3.10;;;1.40;;
43419;SDS011;29017;51.514;-0.178;2022-09-12T08:36:32;5.70;;;3.05;;
43419;SDS011;29017;51.514;-0.178;2022-09-12T08:39:04;5.75;;;2.42;;
43419;SDS011;29017;51.514;-0.178;2022-09-12T08:46:58;3.78;;;1.13;;
43419;SDS011;29017;51.514;-0.178;2022-09-12T08:49:50;6.38;;;1.20;;
43419;SDS011;29017;51.514;-0.178;2022-09-12T08:52:31;5.20;;;0.88;;
43419;SDS011;29017;51.514;-0.178;2022-09-12T08:54:59;6.05;;;2.00;;
43419;SDS011;29017;51.514;-0.178;2022-09-12T08:57:35;8.23;;;1.95;;
43419;SDS011;29017;51.514;-0.178;2022-09-12T09:00:11;3.45;;;0.95;;
43419;SDS011;29017;51.514;-0.178;2022-09-12T09:17:03;3.80;;;2.03;;
43419;SDS011;29017;51.514;-0.178;2022-09-12T09:19:42;5.47;;;1.70;;
43419;SDS011;29017;51.514;-0.178;2022-09-12T09:23:02;6.32;;;1.45;;
43419;SDS011;29017;51.514;-0.178;2022-09-12T09:25:18;6.47;;;2.67;;
43419;SDS011;29017;51.514;-0.178;2022-09-12T09:28:13;4.20;;;1.77;;
43419;SDS011;29017;51.514;-0.178;2022-09-12T09:30:51;4.70;;;0.73;;
43419;SDS011;29017;51.514;-0.178;2022-09-12T09:33:22;3.80;;;0.80;;
43419;SDS011;29017;51.514;-0.178;2022-09-12T09:35:54;6.93;;;1.92;;
43419;SDS011;29017;51.514;-0.178;2022-09-12T09:44:11;3.58;;;2.20;;
43419;SDS011;29017;51.514;-0.178;2022-09-12T09:46:41;6.30;;;1.98;;
43419;SDS011;29017;51.514;-0.178;2022-09-12T09:49:10;3.45;;;1.75;;
43419;SDS011;29017;51.514;-0.178;2022-09-12T09:51:40;8.75;;;6.50;;
43419;SDS011;29017;51.514;-0.178;2022-09-12T09:54:19;3.55;;;1.52;;
43419;SDS011;29017;51.514;-0.178;2022-09-12T09:56:49;7.20;;;0.93;;
43419;SDS011;29017;51.514;-0.178;2022-09-12T10:01:58;3.25;;;0.85;;
43419;SDS011;29017;51.514;-0.178;2022-09-12T10:04:33;5.45;;;0.85;;
43419;SDS011;29017;51.514;-0.178;2022-09-12T10:07:16;1.42;;;0.60;;
43419;SDS011;29017;51.514;-0.178;2022-09-12T10:12:39;4.10;;;1.08;;
43419;SDS011;29017;51.514;-0.178;2022-09-12T10:15:17;2.60;;;1.08;;
43419;SDS011;29017;51.514;-0.178;2022-09-12T10:17:51;4.97;;;0.65;;
43419;SDS011;29017;51.514;-0.178;2022-09-12T10:20:34;4.55;;;0.50;;
43419;SDS011;29017;51.514;-0.178;2022-09-12T10:26:00;4.45;;;0.60;;
43419;SDS011;29017;51.514;-0.178;2022-09-12T10:28:31;3.75;;;0.95;;
43419;SDS011;29017;51.514;-0.178;2022-09-12T10:31:04;4.82;;;0.95;;
43419;SDS011;29017;51.514;-0.178;2022-09-12T10:33:36;4.72;;;0.50;;
43419;SDS011;29017;51.514;-0.178;2022-09-12T10:36:19;2.30;;;0.50;;
43419;SDS011;29017;51.514;-0.178;2022-09-12T10:38:48;2.65;;;0.52;;
43419;SDS011;29017;51.514;-0.178;2022-09-12T10:41:21;3.83;;;0.50;;
43419;SDS011;29017;51.514;-0.178;2022-09-12T10:43:49;2.50;;;0.63;;
43419;SDS011;29017;51.514;-0.178;2022-09-12T10:48:45;4.50;;;0.73;;
43419;SDS011;29017;51.514;-0.178;2022-09-12T10:51:24;2.30;;;0.70;;
43419;SDS011;29017;51.514;-0.178;2022-09-12T10:53:54;2.80;;;0.50;;
43419;SDS011;29017;51.514;-0.178;2022-09-12T10:56:31;3.25;;;0.70;;
43419;SDS011;29017;51.514;-0.178;2022-09-12T11:04:59;3.70;;;0.50;;
43419;SDS011;29017;51.514;-0.178;2022-09-12T11:07:56;2.47;;;0.40;;
43419;SDS011;29017;51.514;-0.178;2022-09-12T11:16:36;5.82;;;0.80;;
43419;SDS011;29017;51.514;-0.178;2022-09-12T11:19:15;4.28;;;0.70;;
43419;SDS011;29017;51.514;-0.178;2022-09-12T11:22:00;2.67;;;0.50;;
43419;SDS011;29017;51.514;-0.178;2022-09-12T11:30:53;2.47;;;0.50;;
43419;SDS011;29017;51.514;-0.178;2022-09-12T11:33:41;2.17;;;0.50;;
43419;SDS011;29017;51.514;-0.178;2022-09-12T11:39:23;5.97;;;0.50;;
43419;SDS011;29017;51.514;-0.178;2022-09-12T11:41:58;1.10;;;0.40;;
43419;SDS011;29017;51.514;-0.178;2022-09-12T11:44:42;3.22;;;0.40;;
43419;SDS011;29017;51.514;-0.178;2022-09-12T11:47:13;3.72;;;0.43;;
43419;SDS011;29017;51.514;-0.178;2022-09-12T11:49:48;1.42;;;0.50;;
43419;SDS011;29017;51.514;-0.178;2022-09-12T11:52:22;12.38;;;1.00;;
43419;SDS011;29017;51.514;-0.178;2022-09-12T12:00:20;2.05;;;0.50;;
43419;SDS011;29017;51.514;-0.178;2022-09-12T12:05:42;2.13;;;0.32;;
43419;SDS011;29017;51.514;-0.178;2022-09-12T12:08:21;1.50;;;0.50;;
43419;SDS011;29017;51.514;-0.178;2022-09-12T12:10:54;1.60;;;0.40;;
43419;SDS011;29017;51.514;-0.178;2022-09-12T12:16:05;4.95;;;0.50;;
43419;SDS011;29017;51.514;-0.178;2022-09-12T12:18:42;4.82;;;0.50;;
43419;SDS011;29017;51.514;-0.178;2022-09-12T12:24:10;1.33;;;0.50;;
43419;SDS011;29017;51.514;-0.178;2022-09-12T12:26:42;1.65;;;0.82;;
43419;SDS011;29017;51.514;-0.178;2022-09-12T12:29:36;1.57;;;0.40;;
43419;SDS011;29017;51.514;-0.178;2022-09-12T12:47:42;4.03;;;0.50;;
43419;SDS011;29017;51.514;-0.178;2022-09-12T12:57:50;5.05;;;0.55;;
43419;SDS011;29017;51.514;-0.178;2022-09-12T13:03:06;3.78;;;0.40;;
43419;SDS011;29017;51.514;-0.178;2022-09-12T13:05:44;3.13;;;0.40;;
43419;SDS011;29017;51.514;-0.178;2022-09-12T13:10:54;1.52;;;0.40;;
43419;SDS011;29017;51.514;-0.178;2022-09-12T13:13:33;4.57;;;0.40;;
43419;SDS011;29017;51.514;-0.178;2022-09-12T13:16:08;3.25;;;0.50;;
43419;SDS011;29017;51.514;-0.178;2022-09-12T13:18:43;1.92;;;0.40;;
43419;SDS011;29017;51.514;-0.178;2022-09-12T13:21:17;5.20;;;0.50;;
43419;SDS011;29017;51.514;-0.178;2022-09-12T13:24:31;3.15;;;0.50;;
43419;SDS011;29017;51.514;-0.178;2022-09-12T13:26:42;4.72;;;0.68;;
43419;SDS011;29017;51.514;-0.178;2022-09-12T13:29:22;2.85;;;0.60;;
43419;SDS011;29017;51.514;-0.178;2022-09-12T13:31:55;1.35;;;0.50;;
43419;SDS011;29017;51.514;-0.178;2022-09-12T13:43:12;1.05;;;0.40;;
43419;SDS011;29017;51.514;-0.178;2022-09-12T13:45:41;1.05;;;0.40;;
43419;SDS011;29017;51.514;-0.178;2022-09-12T13:48:19;3.03;;;0.40;;
43419;SDS011;29017;51.514;-0.178;2022-09-12T13:50:53;1.00;;;0.30;;
43419;SDS011;29017;51.514;-0.178;2022-09-12T13:53:23;2.05;;;0.30;;
43419;SDS011;29017;51.514;-0.178;2022-09-12T13:55:55;1.02;;;0.20;;
43419;SDS011;29017;51.514;-0.178;2022-09-12T13:58:27;4.82;;;0.40;;
43419;SDS011;29017;51.514;-0.178;2022-09-12T14:01:00;1.13;;;0.30;;
43419;SDS011;29017;51.514;-0.178;2022-09-12T14:03:41;1.90;;;0.30;;
43419;SDS011;29017;51.514;-0.178;2022-09-12T14:06:43;2.08;;;0.40;;
43419;SDS011;29017;51.514;-0.178;2022-09-12T14:09:13;3.70;;;0.35;;
43419;SDS011;29017;51.514;-0.178;2022-09-12T14:11:54;2.38;;;0.30;;
43419;SDS011;29017;51.514;-0.178;2022-09-12T14:14:33;1.02;;;0.30;;
43419;SDS011;29017;51.514;-0.178;2022-09-12T14:17:16;1.42;;;0.30;;
43419;SDS011;29017;51.514;-0.178;2022-09-12T14:19:50;6.80;;;1.00;;
43419;SDS011;29017;51.514;-0.178;2022-09-12T14:22:18;3.67;;;0.30;;
43419;SDS011;29017;51.514;-0.178;2022-09-12T14:24:46;0.63;;;0.30;;
43419;SDS011;29017;51.514;-0.178;2022-09-12T14:27:24;1.65;;;0.30;;
43419;SDS011;29017;51.514;-0.178;2022-09-12T14:30:22;1.40;;;0.40;;
43419;SDS011;29017;51.514;-0.178;2022-09-12T14:33:01;4.78;;;0.40;;
43419;SDS011;29017;51.514;-0.178;2022-09-12T14:35:39;3.28;;;0.50;;
43419;SDS011;29017;51.514;-0.178;2022-09-12T14:40:45;0.88;;;0.30;;
43419;SDS011;29017;51.514;-0.178;2022-09-12T14:43:36;2.28;;;0.40;;
43419;SDS011;29017;51.514;-0.178;2022-09-12T14:49:00;1.92;;;0.40;;
43419;SDS011;29017;51.514;-0.178;2022-09-12T14:51:33;1.15;;;0.40;;
43419;SDS011;29017;51.514;-0.178;2022-09-12T14:54:03;3.70;;;0.30;;
43419;SDS011;29017;51.514;-0.178;2022-09-12T14:56:38;1.05;;;0.28;;
43419;SDS011;29017;51.514;-0.178;2022-09-12T14:59:23;2.63;;;0.20;;
43419;SDS011;29017;51.514;-0.178;2022-09-12T15:04:43;2.80;;;0.50;;
43419;SDS011;29017;51.514;-0.178;2022-09-12T15:07:29;1.10;;;0.30;;
43419;SDS011;29017;51.514;-0.178;2022-09-12T15:10:18;1.00;;;0.30;;
43419;SDS011;29017;51.514;-0.178;2022-09-12T15:12:49;4.97;;;0.30;;
43419;SDS011;29017;51.514;-0.178;2022-09-12T15:15:30;2.50;;;0.20;;
43419;SDS011;29017;51.514;-0.178;2022-09-12T15:17:58;2.03;;;0.20;;
43419;SDS011;29017;51.514;-0.178;2022-09-12T15:20:32;2.30;;;0.30;;
43419;SDS011;29017;51.514;-0.178;2022-09-12T15:23:04;2.53;;;0.30;;
43419;SDS011;29017;51.514;-0.178;2022-09-12T15:25:34;3.63;;;0.30;;
43419;SDS011;29017;51.514;-0.178;2022-09-12T15:28:05;2.05;;;0.20;;
43419;SDS011;29017;51.514;-0.178;2022-09-12T15:30:43;1.77;;;0.38;;
43419;SDS011;29017;51.514;-0.178;2022-09-12T15:33:12;2.80;;;0.40;;
43419;SDS011;29017;51.514;-0.178;2022-09-12T15:35:40;2.38;;;0.30;;
43419;SDS011;29017;51.514;-0.178;2022-09-12T15:38:09;3.20;;;0.47;;
43419;SDS011;29017;51.514;-0.178;2022-09-12T15:40:39;1.38;;;0.40;;
43419;SDS011;29017;51.514;-0.178;2022-09-12T15:43:08;2.60;;;0.30;;
43419;SDS011;29017;51.514;-0.178;2022-09-12T15:45:40;2.42;;;0.30;;
43419;SDS011;29017;51.514;-0.178;2022-09-12T15:48:09;2.40;;;0.40;;
43419;SDS011;29017;51.514;-0.178;2022-09-12T15:50:36;1.77;;;0.40;;
43419;SDS011;29017;51.514;-0.178;2022-09-12T15:53:04;1.58;;;0.30;;
43419;SDS011;29017;51.514;-0.178;2022-09-12T15:55:32;2.15;;;0.73;;
43419;SDS011;29017;51.514;-0.178;2022-09-12T15:57:59;1.40;;;0.30;;
43419;SDS011;29017;51.514;-0.178;2022-09-12T16:00:33;2.45;;;0.30;;
43419;SDS011;29017;51.514;-0.178;2022-09-12T16:03:03;3.17;;;0.30;;
43419;SDS011;29017;51.514;-0.178;2022-09-12T16:05:31;2.40;;;0.40;;
43419;SDS011;29017;51.514;-0.178;2022-09-12T16:07:59;2.50;;;0.50;;
43419;SDS011;29017;51.514;-0.178;2022-09-12T16:10:27;3.50;;;0.73;;
43419;SDS011;29017;51.514;-0.178;2022-09-12T16:12:56;2.70;;;0.43;;
43419;SDS011;29017;51.514;-0.178;2022-09-12T16:15:24;1.30;;;0.40;;
43419;SDS011;29017;51.514;-0.178;2022-09-12T16:17:52;2.22;;;0.50;;
43419;SDS011;29017;51.514;-0.178;2022-09-12T16:20:20;2.17;;;0.40;;
43419;SDS011;29017;51.514;-0.178;2022-09-12T16:22:49;2.15;;;0.40;;
43419;SDS011;29017;51.514;-0.178;2022-09-12T16:25:17;3.13;;;0.60;;
43419;SDS011;29017;51.514;-0.178;2022-09-12T16:27:45;1.90;;;0.40;;
43419;SDS011;29017;51.514;-0.178;2022-09-12T16:30:13;2.55;;;0.30;;
43419;SDS011;29017;51.514;-0.178;2022-09-12T16:32:41;1.55;;;0.47;;
43419;SDS011;29017;51.514;-0.178;2022-09-12T16:35:08;1.48;;;0.30;;
43419;SDS011;29017;51.514;-0.178;2022-09-12T16:37:37;1.95;;;0.40;;
43419;SDS011;29017;51.514;-0.178;2022-09-12T16:40:05;2.72;;;0.32;;
43419;SDS011;29017;51.514;-0.178;2022-09-12T16:42:33;2.55;;;0.28;;
43419;SDS011;29017;51.514;-0.178;2022-09-12T16:45:04;1.58;;;0.40;;
43419;SDS011;29017;51.514;-0.178;2022-09-12T16:47:32;1.83;;;0.30;;
43419;SDS011;29017;51.514;-0.178;2022-09-12T16:50:00;2.15;;;0.40;;
43419;SDS011;29017;51.514;-0.178;2022-09-12T16:52:28;3.38;;;0.50;;
43419;SDS011;29017;51.514;-0.178;2022-09-12T16:54:58;1.13;;;0.30;;
43419;SDS011;29017;51.514;-0.178;2022-09-12T16:57:28;2.83;;;0.30;;
43419;SDS011;29017;51.514;-0.178;2022-09-12T16:59:56;1.50;;;0.43;;
43419;SDS011;29017;51.514;-0.178;2022-09-12T17:02:24;2.25;;;0.40;;
43419;SDS011;29017;51.514;-0.178;2022-09-12T17:04:52;1.95;;;0.30;;
43419;SDS011;29017;51.514;-0.178;2022-09-12T17:07:26;2.00;;;0.60;;
43419;SDS011;29017;51.514;-0.178;2022-09-12T17:09:56;1.52;;;0.60;;
43419;SDS011;29017;51.514;-0.178;2022-09-12T17:12:24;2.40;;;0.47;;
43419;SDS011;29017;51.514;-0.178;2022-09-12T17:14:52;2.42;;;0.60;;
43419;SDS011;29017;51.514;-0.178;2022-09-12T17:17:20;3.35;;;0.50;;
43419;SDS011;29017;51.514;-0.178;2022-09-12T17:19:48;1.95;;;0.40;;
43419;SDS011;29017;51.514;-0.178;2022-09-12T17:22:17;1.20;;;0.30;;
43419;SDS011;29017;51.514;-0.178;2022-09-12T17:24:44;3.30;;;1.05;;
43419;SDS011;29017;51.514;-0.178;2022-09-12T17:27:12;6.50;;;2.20;;
43419;SDS011;29017;51.514;-0.178;2022-09-12T17:29:40;3.50;;;0.95;;
43419;SDS011;29017;51.514;-0.178;2022-09-12T17:32:13;7.65;;;3.55;;
43419;SDS011;29017;51.514;-0.178;2022-09-12T17:34:43;3.10;;;1.10;;
43419;SDS011;29017;51.514;-0.178;2022-09-12T17:37:15;2.72;;;0.55;;
43419;SDS011;29017;51.514;-0.178;2022-09-12T17:39:47;3.47;;;1.70;;
43419;SDS011;29017;51.514;-0.178;2022-09-12T17:42:16;2.88;;;0.93;;
43419;SDS011;29017;51.514;-0.178;2022-09-12T17:44:44;2.38;;;0.65;;
43419;SDS011;29017;51.514;-0.178;2022-09-12T17:47:12;1.80;;;0.40;;
43419;SDS011;29017;51.514;-0.178;2022-09-12T17:49:41;2.28;;;0.50;;
43419;SDS011;29017;51.514;-0.178;2022-09-12T17:52:13;10.43;;;9.33;;
43419;SDS011;29017;51.514;-0.178;2022-09-12T17:54:43;6.18;;;3.42;;
43419;SDS011;29017;51.514;-0.178;2022-09-12T17:57:11;2.22;;;0.82;;
43419;SDS011;29017;51.514;-0.178;2022-09-12T17:59:39;2.78;;;0.50;;